Time;durP1;ratioP1;P1;durP2;ratioP2;P2;SDS_P1;SDS_P2;PMS_P1;PMS_P2;Temp;Humidity;BMP_temperature;BMP_pressure;BME280_temperature;BME280_humidity;BME280_pressure;Samples;Min_cycle;Max_cycle;Signal;HPM_P1;HPM_P2
2022/05/25 00:03:28;;;;;;;6.50;2.10;;;;;;;15.92;64.15;98572.23;105962;1276;22525;-81
2022/05/25 00:06:46;;;;;;;6.30;2.00;;;;;;;15.93;64.21;98571.63;105981;1276;22527;-82
2022/05/25 00:09:49;;;;;;;6.90;1.80;;;;;;;15.94;64.26;98567.73;105896;1276;22521;-81
2022/05/25 00:12:32;;;;;;;6.10;2.00;;;;;;;15.92;64.31;98569.19;102081;1276;5234634;-80
2022/05/25 00:15:34;;;;;;;5.80;1.70;;;;;;;15.91;64.21;98574.11;105960;1276;25243;-83
2022/05/25 00:18:22;;;;;;;6.00;1.70;;;;;;;15.88;64.31;98579.65;105946;1276;22562;-84
2022/05/25 00:21:25;;;;;;;;;;;;;;;;;;;;;
2022/05/25 00:24:07;;;;;;;6.90;1.70;;;;;;;15.87;64.25;98585.48;105945;1276;24303;-81
2022/05/25 00:27:01;;;;;;;6.60;1.50;;;;;;;15.88;64.32;98587.36;105929;1277;25385;-82
2022/05/25 00:30:19;;;;;;;;;;;;;;;;;;;;;
2022/05/25 00:33:00;;;;;;;3.70;1.50;;;;;;;15.91;64.21;98593.70;106035;1276;22536;-79
2022/05/25 00:36:13;;;;;;;4.70;1.60;;;;;;;15.91;64.28;98595.48;105925;1276;22693;-82
2022/05/25 00:39:04;;;;;;;5.20;1.70;;;;;;;15.92;64.21;98599.89;105997;1277;22527;-83
2022/05/25 00:42:19;;;;;;;;;;;;;;;;;;;;;
2022/05/25 00:45:34;;;;;;;;;;;;;;;;;;;;;
2022/05/25 00:49:24;;;;;;;3.50;1.30;;;;;;;15.82;64.22;98607.37;105676;1281;25441;-80
2022/05/25 00:53:19;;;;;;;6.40;1.40;;;;;;;15.79;64.41;98607.15;105683;1281;22534;-82
2022/05/25 00:56:16;;;;;;;;;;;;;;;;;;;;;
2022/05/25 01:00:06;;;;;;;;;;;;;;;;;;;;;
2022/05/25 01:03:36;;;;;;;5.30;1.30;;;;;;;15.67;64.51;98617.70;104960;1288;22549;-81
2022/05/25 01:11:17;;;;;;;;;;;;;;;;;;;;;
2022/05/25 01:14:38;;;;;;;;;;;;;;;;;;;;;
2022/05/25 01:18:01;;;;;;;5.50;1.50;;;;;;;15.56;64.59;98633.67;104758;1288;22615;-85
2022/05/25 01:21:12;;;;;;;5.60;1.50;;;;;;;15.54;64.67;98634.02;104856;1288;22547;-86
2022/05/25 01:25:13;;;;;;;4.80;1.50;;;;;;;15.58;64.81;98630.76;105111;1285;24090;-81
2022/05/25 01:28:06;;;;;;;;;;;;;;;;;;;;;
2022/05/25 01:31:05;;;;;;;4.10;1.50;;;;;;;15.48;64.95;98632.82;104928;1288;25167;-81
2022/05/25 01:33:58;;;;;;;;;;;;;;;;;;;;;
2022/05/25 01:36:58;;;;;;;6.10;1.20;;;;;;;15.40;65.01;98630.39;105459;1284;22575;-85
2022/05/25 01:39:49;;;;;;;;;;;;;;;;;;;;;
2022/05/25 01:42:36;;;;;;;4.70;1.60;;;;;;;15.35;65.17;98622.65;105526;1282;26466;-81
2022/05/25 01:45:29;;;;;;;5.50;1.70;;;;;;;15.31;65.19;98620.85;105522;1282;24380;-84
2022/05/25 01:48:28;;;;;;;3.60;1.40;;;;;;;15.28;65.21;98624.77;105563;1282;22634;-83
2022/05/25 01:51:21;;;;;;;4.10;1.40;;;;;;;15.26;65.28;98628.16;105408;1282;25396;-81
2022/05/25 01:54:10;;;;;;;4.40;1.50;;;;;;;15.28;65.34;98627.42;105041;1282;22572;-80
2022/05/25 01:56:53;;;;;;;4.10;1.50;;;;;;;15.38;65.47;98628.03;105111;1282;24298;-82
2022/05/25 02:00:08;;;;;;;;;;;;;;;;;;;;;
2022/05/25 02:06:23;;;;;;;5.50;2.10;;;;;;;15.57;65.77;98627.85;105739;1276;22546;-80
2022/05/25 02:09:41;;;;;;;;;;;;;;;;;;;;;
2022/05/25 02:13:08;;;;;;;;;;;;;;;;;;;;;
2022/05/25 02:16:29;;;;;;;22.20;6.00;;;;;;;15.62;65.81;98639.19;105835;1276;25454;-81
2022/05/25 02:19:32;;;;;;;15.40;4.20;;;;;;;15.67;65.75;98645.13;105233;1281;24368;-86
2022/05/25 02:22:40;;;;;;;9.80;3.00;;;;;;;15.72;65.79;98645.55;105636;1282;22626;-85
2022/05/25 02:25:45;;;;;;;8.00;2.80;;;;;;;15.76;65.81;98639.62;105592;1282;25209;-83
2022/05/25 02:28:35;;;;;;;8.30;2.40;;;;;;;15.76;65.83;98642.28;105657;1281;24291;-86
2022/05/25 02:31:20;;;;;;;7.40;2.30;;;;;;;15.73;65.81;98641.91;105533;1283;22589;-82
2022/05/25 02:34:11;;;;;;;6.80;1.70;;;;;;;15.70;65.95;98648.04;105525;1282;22537;-83
2022/05/25 02:36:50;;;;;;;7.20;1.60;;;;;;;15.68;65.91;98650.76;105629;1282;23938;-80
2022/05/25 02:39:41;;;;;;;;;;;;;;;;;;;;;
2022/05/25 02:42:48;;;;;;;4.20;1.60;;;;;;;15.70;65.85;98664.79;105515;1283;22617;-85
2022/05/25 02:45:31;;;;;;;;;;;;;;;;;;;;;
2022/05/25 02:48:39;;;;;;;4.80;1.70;;;;;;;15.70;65.99;98663.01;105464;1283;24096;-83
2022/05/25 02:51:24;;;;;;;6.10;1.70;;;;;;;15.69;66.04;98663.77;105484;1282;24429;-86
2022/05/25 02:54:20;;;;;;;5.70;1.60;;;;;;;15.67;66.05;98668.79;105670;1278;22562;-87
2022/05/25 02:57:19;;;;;;;6.10;1.90;;;;;;;15.64;66.20;98669.71;105790;1276;22556;-86
2022/05/25 03:00:04;;;;;;;5.70;1.90;;;;;;;15.64;66.27;98670.24;105712;1279;22559;-87
2022/05/25 03:03:10;;;;;;;3.80;1.60;;;;;;;15.65;66.25;98673.30;105921;1276;23046;-83
2022/05/25 03:06:10;;;;;;;7.10;2.30;;;;;;;15.71;66.26;98676.91;105966;1276;25294;-82
2022/05/25 03:09:30;;;;;;;;;;;;;;;;;;;;;
2022/05/25 03:12:58;;;;;;;5.20;2.00;;;;;;;15.72;66.35;98692.77;105209;1285;22560;-83
2022/05/25 03:16:18;;;;;;;;;;;;;;;;;;;;;
2022/05/25 03:19:19;;;;;;;5.20;2.40;;;;;;;15.55;66.61;98692.02;105755;1284;26801;-90
2022/05/25 03:22:36;;;;;;;6.90;2.40;;;;;;;15.52;66.54;98696.34;105259;1285;22703;-83
2022/05/25 03:25:56;;;;;;;;;;;;;;;;;;;;;
2022/05/25 03:29:12;;;;;;;;;;;;;;;;;;;;;
2022/05/25 03:36:52;;;;;;;;;;;;;;;;;;;;;
2022/05/25 03:40:21;;;;;;;5.50;2.20;;;;;;;15.53;66.73;98711.62;104523;1291;24290;-85
2022/05/25 03:43:11;;;;;;;6.70;2.70;;;;;;;15.53;66.81;98713.47;104398;1291;23624;-84
2022/05/25 03:46:44;;;;;;;;;;;;;;;;;;;;;
2022/05/25 03:49:40;;;;;;;7.90;2.00;;;;;;;15.54;66.82;98711.34;104888;1287;22615;-85
2022/05/25 03:52:57;;;;;;;;;;;;;;;;;;;;;
2022/05/25 03:56:54;;;;;;;7.10;2.10;;;;;;;15.57;66.82;98717.64;105051;1285;23297;-84
2022/05/25 03:59:42;;;;;;;;;;;;;;;;;;;;;
2022/05/25 04:03:02;;;;;;;;;;;;;;;;;;;;;
2022/05/25 04:06:33;;;;;;;;;;;;;;;;;;;;;
2022/05/25 04:10:17;;;;;;;;;;;;;;;;;;;;;
2022/05/25 04:13:30;;;;;;;;;;;;;;;;;;;;;
2022/05/25 04:17:02;;;;;;;;;;;;;;;;;;;;;
2022/05/25 04:20:10;;;;;;;7.50;3.10;;;;;;;15.59;66.95;98708.17;103920;1297;22892;-87
2022/05/25 04:23:31;;;;;;;6.80;3.00;;;;;;;15.57;67.23;98708.59;103835;1297;24259;-86
2022/05/25 04:26:22;;;;;;;;;;;;;;;;;;;;;
2022/05/25 04:29:49;;;;;;;;;;;;;;;;;;;;;
2022/05/25 04:33:31;;;;;;;;;;;;;;;;;;;;;
2022/05/25 04:36:41;;;;;;;;;;;;;;;;;;;;;
2022/05/25 04:39:40;;;;;;;;;;;;;;;;;;;;;
2022/05/25 04:42:50;;;;;;;;;;;;;;;;;;;;;
2022/05/25 04:50:34;;;;;;;;;;;;;;;;;;;;;
2022/05/25 04:53:49;;;;;;;;;;;;;;;;;;;;;
2022/05/25 05:00:35;;;;;;;7.30;3.10;;;;;;;15.55;67.43;98739.06;103252;1305;22605;-84
2022/05/25 05:03:10;;;;;;;8.20;2.90;;;;;;;15.55;67.42;98734.92;103375;1305;26648;-85
2022/05/25 05:05:51;;;;;;;7.20;2.90;;;;;;;15.53;67.46;98729.61;103446;1305;26578;-88
2022/05/25 05:08:33;;;;;;;8.00;3.30;;;;;;;15.51;67.51;98729.45;103549;1305;22579;-83
2022/05/25 05:11:39;;;;;;;7.40;2.80;;;;;;;15.49;67.43;98737.94;104012;1299;23221;-85
2022/05/25 05:14:20;;;;;;;7.40;2.50;;;;;;;15.46;67.41;98739.31;104021;1298;22560;-86
2022/05/25 05:17:16;;;;;;;6.40;2.40;;;;;;;15.40;67.47;98738.92;103529;1300;22639;-80
2022/05/25 05:20:21;;;;;;;6.00;2.50;;;;;;;15.37;67.45;98740.45;103870;1299;22681;-84
2022/05/25 05:22:58;;;;;;;5.80;2.50;;;;;;;15.36;67.52;98740.77;104089;1299;22541;-86
2022/05/25 05:25:41;;;;;;;5.40;2.60;;;;;;;15.37;67.55;98741.35;104131;1293;22725;-85
2022/05/25 05:28:31;;;;;;;6.10;2.30;;;;;;;15.36;67.58;98749.38;104257;1293;24647;-85
2022/05/25 05:31:24;;;;;;;5.90;2.60;;;;;;;15.33;67.60;98753.23;104774;1285;22639;-86
2022/05/25 05:34:06;;;;;;;6.50;2.50;;;;;;;15.31;67.56;98761.12;105178;1284;22555;-85
2022/05/25 05:36:54;;;;;;;6.00;2.50;;;;;;;15.30;67.55;98761.92;105653;1279;24210;-86
2022/05/25 05:39:45;;;;;;;5.50;2.10;;;;;;;15.32;67.49;98761.25;105908;1278;22684;-84
2022/05/25 05:42:21;;;;;;;5.90;2.00;;;;;;;15.35;67.66;98758.45;105815;1279;22716;-89
2022/05/25 05:45:11;;;;;;;6.00;2.20;;;;;;;15.38;67.68;98762.45;105602;1279;22543;-85
2022/05/25 05:47:57;;;;;;;6.10;2.40;;;;;;;15.38;67.61;98766.86;105602;1279;25235;-84
2022/05/25 05:50:32;;;;;;;9.90;2.40;;;;;;;15.38;67.65;98768.88;105827;1279;22698;-84
2022/05/25 05:53:08;;;;;;;7.20;2.20;;;;;;;15.39;67.78;98771.50;105760;1279;22574;-86
2022/05/25 05:55:51;;;;;;;8.50;2.60;;;;;;;15.45;67.78;98774.18;105709;1277;22543;-84
2022/05/25 05:58:40;;;;;;;6.90;2.10;;;;;;;15.52;67.81;98775.28;105911;1277;22567;-84
2022/05/25 06:01:23;;;;;;;6.20;2.10;;;;;;;15.60;67.72;98780.73;105880;1274;22807;-88
2022/05/25 06:04:08;;;;;;;5.30;2.00;;;;;;;15.70;67.66;98777.48;105753;1276;22536;-86
2022/05/25 06:06:49;;;;;;;4.60;1.90;;;;;;;15.77;67.61;98781.81;105763;1276;25353;-84
2022/05/25 06:09:38;;;;;;;7.30;2.30;;;;;;;15.79;67.62;98783.58;105805;1276;25365;-84
2022/05/25 06:13:15;;;;;;;6.00;2.10;;;;;;;15.79;67.62;98783.77;105822;1277;22544;-86
2022/05/25 06:19:31;;;;;;;5.70;2.10;;;;;;;15.80;67.66;98792.50;105828;1276;25203;-86
2022/05/25 06:23:44;;;;;;;5.50;2.00;;;;;;;15.80;67.58;98799.36;105680;1282;22552;-87
2022/05/25 06:26:43;;;;;;;6.60;1.80;;;;;;;15.81;67.68;98800.92;105586;1282;22637;-88
2022/05/25 06:29:42;;;;;;;;;;;;;;;;;;;;;
2022/05/25 06:32:36;;;;;;;5.70;2.10;;;;;;;16.03;67.84;98799.35;105321;1282;25356;-87
2022/05/25 06:35:51;;;;;;;;;;;;;;;;;;;;;
2022/05/25 06:42:36;;;;;;;5.20;1.90;;;;;;;16.19;67.61;98803.56;104380;1290;22580;-85
2022/05/25 06:45:40;;;;;;;;;;;;;;;;;;;;;
2022/05/25 06:49:00;;;;;;;;;;;;;;;;;;;;;
2022/05/25 06:52:10;;;;;;;;;;;;;;;;;;;;;
2022/05/25 06:55:22;;;;;;;;;;;;;;;;;;;;;
2022/05/25 06:58:35;;;;;;;;;;;;;;;;;;;;;
2022/05/25 07:01:57;;;;;;;5.80;2.50;;;;;;;17.19;67.26;98825.41;105159;1285;22822;-86
2022/05/25 07:04:57;;;;;;;5.60;2.30;;;;;;;17.33;67.25;98829.69;105111;1285;24233;-85
2022/05/25 07:07:55;;;;;;;5.80;2.30;;;;;;;17.42;67.18;98838.12;105186;1285;22564;-88
2022/05/25 07:10:42;;;;;;;6.60;2.40;;;;;;;17.49;67.24;98838.42;105221;1285;22554;-88
2022/05/25 07:14:00;;;;;;;;;;;;;;;;;;;;;
2022/05/25 07:17:02;;;;;;;6.70;3.40;;;;;;;17.75;67.04;98839.36;105085;1284;22993;-85
2022/05/25 07:20:16;;;;;;;;;;;;;;;;;;;;;
2022/05/25 07:23:01;;;;;;;;;;;;;;;;;;;;;
2022/05/25 07:25:51;;;;;;;6.50;2.90;;;;;;;18.29;66.96;98828.02;105828;1277;25652;-84
2022/05/25 07:28:55;;;;;;;6.50;3.10;;;;;;;18.51;67.14;98821.46;105956;1276;22593;-86
2022/05/25 07:32:27;;;;;;;7.70;2.90;;;;;;;18.64;66.95;98821.14;105850;1281;22524;-87
2022/05/25 07:35:19;;;;;;;7.80;3.30;;;;;;;18.78;67.05;98819.85;106040;1276;22553;-84
2022/05/25 07:38:24;;;;;;;6.30;3.10;;;;;;;18.82;66.67;98817.36;105876;1276;25314;-85
2022/05/25 07:41:20;;;;;;;7.60;3.30;;;;;;;18.86;66.85;98814.23;105877;1277;22560;-88
2022/05/25 07:44:08;;;;;;;;;;;;;;;;;;;;;
2022/05/25 07:46:35;;;;;;;6.30;2.70;;;;;;;18.88;66.61;98818.16;105946;1276;24309;-83
2022/05/25 07:49:02;;;;;;;6.30;2.70;;;;;;;18.86;66.55;98823.42;105887;1276;22671;-83
2022/05/25 07:51:34;;;;;;;6.30;2.30;;;;;;;18.88;66.74;98825.42;105825;1278;23801;-84
2022/05/25 07:54:14;;;;;;;6.80;2.20;;;;;;;18.88;66.70;98826.10;105792;1277;25653;-82
2022/05/25 07:56:59;;;;;;;;;;;;;;;;;;;;;
2022/05/25 07:59:50;;;;;;;5.90;2.30;;;;;;;18.91;66.45;98842.91;105728;1279;23962;-82
2022/05/25 08:05:48;;;;;;;5.40;1.70;;;;;;;18.81;66.56;98849.23;105860;1277;22747;-84
2022/05/25 08:08:32;;;;;;;5.30;1.70;;;;;;;18.84;66.52;98852.15;105817;1278;22553;-83
2022/05/25 08:11:22;;;;;;;5.70;1.90;;;;;;;18.91;66.52;98859.45;105724;1278;22543;-82
2022/05/25 08:14:01;;;;;;;5.60;1.80;;;;;;;18.97;66.31;98866.06;105782;1277;25245;-80
2022/05/25 08:16:35;;;;;;;4.50;1.70;;;;;;;18.96;66.33;98863.89;105760;1276;24222;-82
2022/05/25 08:19:38;;;;;;;5.00;1.90;;;;;;;18.97;66.32;98861.63;105792;1276;25326;-81
2022/05/25 08:22:07;;;;;;;4.80;1.80;;;;;;;18.93;66.12;98864.94;106053;1277;22599;-84
2022/05/25 08:25:02;;;;;;;6.60;1.70;;;;;;;18.88;66.24;98867.56;105737;1276;24354;-85
2022/05/25 08:27:33;;;;;;;3.40;1.50;;;;;;;18.90;66.33;98866.33;105702;1278;22559;-81
2022/05/25 08:30:20;;;;;;;3.50;1.40;;;;;;;18.89;66.24;98862.42;105757;1279;24261;-84
2022/05/25 08:33:18;;;;;;;5.00;1.70;;;;;;;18.87;66.26;98862.08;105870;1278;23022;-80
2022/05/25 08:36:41;;;;;;;4.00;1.70;;;;;;;18.90;66.45;98861.99;105786;1276;22719;-81
2022/05/25 08:39:19;;;;;;;4.10;1.60;;;;;;;18.94;66.22;98866.75;105754;1277;24209;-82
2022/05/25 08:41:59;;;;;;;3.60;1.30;;;;;;;18.90;66.08;98873.12;105672;1281;25371;-80
2022/05/25 08:44:43;;;;;;;4.20;2.00;;;;;;;18.83;65.90;98881.13;105794;1277;22563;-81
2022/05/25 08:47:19;;;;;;;7.90;3.30;;;;;;;18.77;65.93;98890.66;105742;1276;22566;-82
2022/05/25 08:49:56;;;;;;;6.20;2.70;;;;;;;18.71;66.01;98891.32;105704;1276;22731;-84
2022/05/25 08:52:34;;;;;;;5.10;2.10;;;;;;;18.73;66.19;98892.73;105736;1277;22546;-81
2022/05/25 08:55:39;;;;;;;8.80;4.60;;;;;;;18.75;66.26;98895.52;105747;1280;22589;-82
2022/05/25 08:58:31;;;;;;;4.50;1.70;;;;;;;18.71;66.08;98895.10;105175;1284;22537;-79
2022/05/25 09:01:51;;;;;;;3.20;1.30;;;;;;;18.63;66.05;98893.16;105192;1285;22538;-83
2022/05/25 09:05:02;;;;;;;5.20;1.70;;;;;;;18.59;66.19;98891.58;105139;1285;24300;-82
2022/05/25 09:08:26;;;;;;;3.90;1.50;;;;;;;18.54;66.27;98887.53;104580;1290;25343;-81
2022/05/25 09:11:27;;;;;;;;;;;;;;;;;;;;;
2022/05/25 09:14:20;;;;;;;4.70;1.80;;;;;;;18.56;66.30;98895.73;104453;1291;23346;-81
2022/05/25 09:17:30;;;;;;;5.20;2.20;;;;;;;18.63;66.41;98903.08;104286;1290;22706;-80
2022/05/25 09:20:44;;;;;;;5.90;2.60;;;;;;;18.74;66.30;98906.65;104302;1291;22797;-81
2022/05/25 09:23:37;;;;;;;;;;;;;;;;;;;;;
2022/05/25 09:26:18;;;;;;;4.50;1.80;;;;;;;18.87;66.07;98907.16;104328;1293;22571;-83
2022/05/25 09:29:04;;;;;;;4.10;1.60;;;;;;;18.89;66.04;98909.52;104259;1293;22556;-83
2022/05/25 09:32:17;;;;;;;;;;;;;;;;;;;;;
2022/05/25 09:35:14;;;;;;;4.60;1.60;;;;;;;18.90;66.04;98900.71;104696;1284;22562;-85
2022/05/25 09:38:01;;;;;;;3.80;1.30;;;;;;;18.91;66.01;98900.99;105381;1284;22560;-81
2022/05/25 09:41:36;;;;;;;5.10;1.60;;;;;;;18.95;66.10;98898.25;105149;1285;24483;-81
2022/05/25 09:44:03;;;;;;;7.10;1.60;;;;;;;19.03;65.95;98902.42;105804;1278;25337;-84
2022/05/25 09:46:50;;;;;;;4.40;1.20;;;;;;;19.12;66.10;98905.67;105714;1278;22670;-80
2022/05/25 09:49:37;;;;;;;4.30;1.30;;;;;;;19.24;65.82;98902.64;105638;1278;23012;-82
2022/05/25 09:52:35;;;;;;;5.70;1.50;;;;;;;19.36;65.52;98912.04;105780;1277;25304;-80
2022/05/25 09:55:41;;;;;;;3.30;1.30;;;;;;;19.55;65.60;98915.55;105767;1277;22661;-80
2022/05/25 09:58:46;;;;;;;4.60;1.80;;;;;;;19.74;65.51;98915.80;105721;1281;22582;-79
2022/05/25 10:01:31;;;;;;;5.30;2.00;;;;;;;19.91;65.58;98916.21;105744;1278;24290;-82
2022/05/25 10:04:01;;;;;;;4.30;1.30;;;;;;;20.14;65.62;98913.50;105665;1277;25521;-78
2022/05/25 10:06:50;;;;;;;4.70;1.40;;;;;;;20.27;65.22;98913.41;105772;1278;24415;-80
2022/05/25 10:09:25;;;;;;;4.10;1.40;;;;;;;20.36;65.18;98912.87;105808;1277;24212;-81
2022/05/25 10:12:41;;;;;;;6.00;1.80;;;;;;;20.56;65.41;98907.41;105691;1281;22539;-86
2022/05/25 10:15:11;;;;;;;3.40;1.30;;;;;;;20.90;65.18;98901.23;105875;1277;24604;-86
2022/05/25 10:17:46;;;;;;;4.00;1.60;;;;;;;21.12;65.00;98903.88;105781;1281;22734;-82
2022/05/25 10:20:24;;;;;;;4.40;1.10;;;;;;;21.25;64.81;98904.10;105799;1278;25242;-79
2022/05/25 10:23:03;;;;;;;8.80;1.90;;;;;;;21.20;64.66;98902.88;105774;1281;22776;-80
2022/05/25 10:26:19;;;;;;;4.10;1.50;;;;;;;21.16;64.82;98898.11;105781;1278;22543;-81
2022/05/25 10:29:12;;;;;;;3.50;1.30;;;;;;;21.10;64.77;98893.75;105327;1286;22546;-80
2022/05/25 10:38:26;;;;;;;3.40;1.20;;;;;;;20.87;64.63;98894.41;105232;1285;25443;-84
2022/05/25 10:41:37;;;;;;;4.30;1.30;;;;;;;20.81;64.53;98900.64;105143;1285;22575;-82
2022/05/25 10:44:14;;;;;;;3.10;1.30;;;;;;;20.69;64.52;98908.02;105369;1284;22562;-81
2022/05/25 10:46:57;;;;;;;3.40;1.10;;;;;;;20.52;64.63;98906.79;104981;1285;24306;-84
2022/05/25 10:49:36;;;;;;;4.40;1.30;;;;;;;20.31;64.55;98904.61;105410;1284;24239;-82
2022/05/25 10:52:11;;;;;;;3.80;1.50;;;;;;;20.09;64.42;98905.85;105150;1287;22696;-86
2022/05/25 10:54:55;;;;;;;5.60;1.80;;;;;;;19.95;64.73;98907.43;105142;1287;22664;-83
2022/05/25 10:58:01;;;;;;;4.60;1.40;;;;;;;19.95;64.87;98911.45;105265;1284;25242;-81
2022/05/25 11:00:57;;;;;;;4.10;1.40;;;;;;;19.99;64.78;98913.67;105174;1284;22681;-83
2022/05/25 11:04:05;;;;;;;3.70;1.40;;;;;;;20.03;64.69;98911.46;105075;1284;22571;-80
2022/05/25 11:07:12;;;;;;;6.40;1.50;;;;;;;19.98;63.89;98913.11;105730;1278;22720;-83
2022/05/25 11:10:16;;;;;;;6.20;1.60;;;;;;;19.69;63.61;98911.71;105947;1277;24141;-84
2022/05/25 11:12:56;;;;;;;4.30;1.20;;;;;;;19.43;63.99;98907.52;105814;1278;24317;-84
2022/05/25 11:15:40;;;;;;;4.60;1.50;;;;;;;19.33;64.35;98909.33;105758;1281;25248;-81
2022/05/25 11:18:29;;;;;;;5.20;1.70;;;;;;;19.02;63.66;98909.19;105807;1278;25298;-80
2022/05/25 11:21:22;;;;;;;5.70;1.60;;;;;;;18.68;63.72;98913.25;105760;1278;25241;-80
2022/05/25 11:24:26;;;;;;;6.80;2.40;;;;;;;18.45;64.03;98917.49;105383;1284;23954;-81
2022/05/25 11:27:51;;;;;;;9.40;2.30;;;;;;;18.36;64.59;98920.39;105405;1284;25394;-81
2022/05/25 11:31:03;;;;;;;25.00;8.40;;;;;;;18.19;64.13;98928.36;105652;1284;25268;-81
2022/05/25 11:34:06;;;;;;;10.70;3.30;;;;;;;18.04;64.82;98933.39;105587;1284;22922;-81
2022/05/25 11:37:28;;;;;;;7.80;2.40;;;;;;;18.07;64.90;98939.04;105638;1282;24220;-80
2022/05/25 11:40:31;;;;;;;7.70;2.70;;;;;;;18.02;64.60;98940.21;105464;1284;22825;-82
2022/05/25 11:43:18;;;;;;;5.60;2.00;;;;;;;17.95;64.61;98939.39;105616;1284;25281;-81
2022/05/25 11:46:08;;;;;;;7.60;1.90;;;;;;;18.08;64.97;98935.69;105214;1284;22570;-84
2022/05/25 11:49:27;;;;;;;;;;;;;;;;;;;;;
2022/05/25 11:52:49;;;;;;;5.80;2.30;;;;;;;18.02;64.36;98929.60;105367;1284;22651;-83
2022/05/25 11:55:28;;;;;;;10.20;3.90;;;;;;;17.89;64.81;98937.86;104855;1290;24248;-83
2022/05/25 11:58:23;;;;;;;8.40;3.00;;;;;;;17.78;64.82;98938.65;104635;1290;22558;-84
2022/05/25 12:01:34;;;;;;;7.70;2.60;;;;;;;17.54;64.72;98949.66;104646;1288;25377;-84
2022/05/25 12:05:00;;;;;;;5.20;1.70;;;;;;;17.50;64.71;98949.99;105159;1287;22767;-85
2022/05/25 12:12:42;;;;;;;;;;;;;;;;;;;;;
2022/05/25 12:16:02;;;;;;;;;;;;;;;;;;;;;
2022/05/25 12:19:48;;;;;;;6.70;2.50;;;;;;;17.25;64.28;98971.56;103425;1303;22655;-85
2022/05/25 12:23:22;;;;;;;16.60;5.40;;;;;;;17.06;64.61;98970.32;103506;1303;25573;-84
2022/05/25 12:26:27;;;;;;;;;;;;;;;;;;;;;
2022/05/25 12:29:59;;;;;;;9.90;3.20;;;;;;;16.97;64.52;98976.85;102997;1306;23035;-87
2022/05/25 12:33:50;;;;;;;;;;;;;;;;;;;;;
2022/05/25 12:36:56;;;;;;;;;;;;;;;;;;;;;
2022/05/25 12:40:32;;;;;;;;;;;;;;;;;;;;;
2022/05/25 12:51:28;;;;;;;;;;;;;;;;;;;;;
2022/05/25 12:55:08;;;;;;;8.10;3.20;;;;;;;17.65;64.54;98979.01;102982;1309;22601;-85
2022/05/25 12:58:54;;;;;;;6.30;2.50;;;;;;;17.91;64.46;98975.67;103017;1308;25492;-84
2022/05/25 13:02:19;;;;;;;;;;;;;;;;;;;;;
2022/05/25 13:05:50;;;;;;;;;;;;;;;;;;;;;
2022/05/25 13:09:39;;;;;;;;;;;;;;;;;;;;;
2022/05/25 13:13:12;;;;;;;;;;;;;;;;;;;;;
2022/05/25 13:16:27;;;;;;;;;;;;;;;;;;;;;
2022/05/25 13:20:06;;;;;;;8.30;2.40;;;;;;;18.22;64.33;98982.17;102052;1317;24029;-86
2022/05/25 13:22:58;;;;;;;6.50;2.60;;;;;;;18.33;64.11;98988.20;102408;1317;22683;-88
2022/05/25 13:26:22;;;;;;;;;;;;;;;;;;;;;
2022/05/25 13:29:44;;;;;;;7.40;2.30;;;;;;;18.40;64.00;98983.34;102828;1311;22614;-85
2022/05/25 13:32:55;;;;;;;5.40;1.80;;;;;;;18.51;64.48;98980.65;103044;1308;23391;-86
2022/05/25 13:36:21;;;;;;;;;;;;;;;;;;;;;
2022/05/25 13:39:37;;;;;;;3.10;1.00;;;;;;;18.19;63.25;98982.96;102938;1311;22602;-86
2022/05/25 13:43:01;;;;;;;4.00;1.20;;;;;;;18.02;63.63;98980.83;103022;1308;22585;-87
2022/05/25 13:45:48;;;;;;;4.70;1.50;;;;;;;18.00;63.80;98983.48;103904;1297;22562;-86
2022/05/25 13:53:14;;;;;;;4.40;1.50;;;;;;;17.80;63.67;98980.22;103641;1302;22566;-85
2022/05/25 13:56:14;;;;;;;5.80;1.60;;;;;;;17.75;63.88;98973.52;104085;1293;24300;-87
2022/05/25 13:59:03;;;;;;;6.50;1.90;;;;;;;17.74;64.36;98975.98;104357;1294;22613;-85
2022/05/25 14:02:15;;;;;;;5.70;1.60;;;;;;;17.85;64.46;98970.16;104515;1293;22570;-89
2022/05/25 14:05:00;;;;;;;7.10;3.60;;;;;;;17.96;64.26;98974.77;103934;1294;24471;-86
2022/05/25 14:08:15;;;;;;;7.10;3.50;;;;;;;18.08;64.75;98970.43;104328;1291;24760;-85
2022/05/25 14:12:36;;;;;;;15.10;10.50;;;;;;;18.20;64.72;98970.61;104493;1294;22581;-86
2022/05/25 14:15:34;;;;;;;;;;;;;;;;;;;;;
2022/05/25 14:18:39;;;;;;;;;;;;;;;;;;;;;
2022/05/25 14:21:27;;;;;;;8.40;2.10;;;;;;;18.25;64.50;98973.20;104432;1293;22584;-87
2022/05/25 14:25:00;;;;;;;9.10;3.90;;;;;;;18.30;64.40;98976.93;105227;1287;24309;-86
2022/05/25 14:27:44;;;;;;;9.30;1.90;;;;;;;18.43;64.17;98978.48;103904;1300;25641;-85
2022/05/25 14:31:06;;;;;;;5.00;1.70;;;;;;;18.38;63.42;98978.66;103892;1300;24467;-87
2022/05/25 14:34:13;;;;;;;;;;;;;;;;;;;;;
2022/05/25 14:37:37;;;;;;;7.80;1.60;;;;;;;18.74;63.86;98983.86;103805;1300;22522;-85
2022/05/25 14:40:59;;;;;;;6.30;1.80;;;;;;;19.35;64.04;98973.06;103938;1300;22659;-87
2022/05/25 14:44:13;;;;;;;6.70;1.40;;;;;;;20.09;63.92;98965.90;103464;1305;24253;-85
2022/05/25 14:47:09;;;;;;;;;;;;;;;;;;;;;
2022/05/25 14:49:39;;;;;;;5.10;1.20;;;;;;;21.27;63.83;98946.45;103451;1305;25346;-85
2022/05/25 14:52:31;;;;;;;3.20;1.10;;;;;;;21.63;63.26;98945.77;103989;1296;24343;-85
2022/05/25 14:55:24;;;;;;;3.50;0.90;;;;;;;21.70;62.84;98942.70;104043;1300;22644;-84
2022/05/25 14:59:23;;;;;;;4.20;1.20;;;;;;;21.55;62.49;98941.69;104026;1300;25544;-85
2022/05/25 15:02:29;;;;;;;4.60;1.10;;;;;;;21.25;62.49;98939.43;103414;1305;25337;-85
2022/05/25 15:06:11;;;;;;;;;;;;;;;;;;;;;
2022/05/25 15:09:34;;;;;;;3.60;0.90;;;;;;;22.15;61.60;98934.42;104007;1299;25365;-84
2022/05/25 15:12:32;;;;;;;2.40;0.70;;;;;;;22.07;61.38;98934.15;103972;1300;25454;-84
2022/05/25 15:19:31;;;;;;;;;;;;;;;;;;;;;
2022/05/25 15:22:56;;;;;;;2.50;0.80;;;;;;;21.58;61.70;98940.81;104481;1293;24703;-85
2022/05/25 15:25:49;;;;;;;4.20;1.00;;;;;;;22.01;61.22;98940.41;104474;1293;24339;-83
2022/05/25 15:28:59;;;;;;;2.40;0.80;;;;;;;22.49;60.80;98939.98;104332;1294;22556;-84
2022/05/25 15:31:33;;;;;;;3.60;0.90;;;;;;;23.46;60.54;98931.67;104480;1293;22655;-84
2022/05/25 15:34:07;;;;;;;3.50;1.00;;;;;;;23.52;60.56;98932.59;104322;1294;24494;-83
2022/05/25 15:36:54;;;;;;;3.50;0.80;;;;;;;24.20;60.50;98931.67;104368;1290;25369;-82
2022/05/25 15:40:22;;;;;;;3.40;0.70;;;;;;;24.91;59.31;98931.94;105153;1284;24238;-84
2022/05/25 15:43:11;;;;;;;4.40;0.90;;;;;;;25.54;59.30;98928.15;105643;1277;25235;-85
2022/05/25 15:45:45;;;;;;;2.20;0.70;;;;;;;26.05;59.23;98922.42;105849;1279;22715;-84
2022/05/25 15:48:40;;;;;;;;;;;;;;;;;;;;;
2022/05/25 15:51:43;;;;;;;3.30;1.10;;;;;;;26.91;58.53;98926.95;105975;1277;22539;-84
2022/05/25 15:54:32;;;;;;;3.90;0.80;;;;;;;27.23;57.59;98932.48;106080;1277;24266;-86
2022/05/25 15:57:22;;;;;;;1.90;0.80;;;;;;;27.46;57.35;98933.09;105992;1276;24406;-83
2022/05/25 16:00:00;;;;;;;2.20;0.70;;;;;;;27.61;57.05;98938.84;105850;1277;22707;-87
2022/05/25 16:02:50;;;;;;;2.70;0.70;;;;;;;27.91;57.08;98939.34;105808;1278;22539;-86
2022/05/25 16:05:49;;;;;;;3.90;1.10;;;;;;;28.10;56.32;98929.77;105886;1277;22570;-84
2022/05/25 16:11:46;;;;;;;;;;;;;;;;;;;;;
2022/05/25 16:14:56;;;;;;;1.90;0.90;;;;;;;28.24;55.11;98918.20;105960;1276;25366;-85
2022/05/25 16:17:54;;;;;;;2.70;1.10;;;;;;;28.30;55.01;98917.98;105992;1277;25494;-83
2022/05/25 16:20:53;;;;;;;2.70;1.20;;;;;;;28.37;54.74;98915.27;105902;1276;22676;-84
2022/05/25 16:24:11;;;;;;;3.70;1.30;;;;;;;28.22;54.21;98920.98;105676;1276;24294;-84
2022/05/25 16:26:58;;;;;;;4.80;1.60;;;;;;;27.88;53.98;98922.67;106600;1274;24205;-84
2022/05/25 16:30:00;;;;;;;;;;;;;;;;;;;;;
2022/05/25 16:33:06;;;;;;;6.00;1.30;;;;;;;25.90;55.03;98918.81;106029;1276;22559;-83
2022/05/25 16:35:50;;;;;;;4.50;1.30;;;;;;;24.73;56.10;98927.96;105916;1276;22665;-85
2022/05/25 16:38:22;;;;;;;3.80;1.20;;;;;;;23.91;56.70;98928.16;106640;1276;24385;-83
2022/05/25 16:41:51;;;;;;;;;;;;;;;;;;;;;
2022/05/25 16:45:00;;;;;;;4.00;1.30;;;;;;;22.38;56.88;98932.02;106073;1276;24297;-85
2022/05/25 16:48:10;;;;;;;4.70;1.30;;;;;;;21.66;56.74;98934.73;106060;1276;22692;-84
2022/05/25 16:52:15;;;;;;;4.60;1.30;;;;;;;20.97;56.71;98933.15;106335;1276;22550;-82
2022/05/25 16:54:34;;;;;;;6.30;1.20;;;;;;;20.36;56.95;98935.15;106065;1276;23945;-83
2022/05/25 16:57:49;;;;;;;3.90;1.20;;;;;;;19.96;56.80;98939.50;106132;1276;22590;-83
2022/05/25 17:00:32;;;;;;;5.60;1.20;;;;;;;19.58;57.01;98944.10;106085;1277;25360;-84
2022/05/25 17:04:20;;;;;;;4.60;1.20;;;;;;;19.28;57.24;98945.27;106006;1276;25605;-84
2022/05/25 17:07:02;;;;;;;;;;;;;;;;;;;;;
2022/05/25 17:10:41;;;;;;;;;;;;;;;;;;;;;
2022/05/25 17:14:38;;;;;;;3.40;1.10;;;;;;;18.57;57.37;98947.95;105731;1279;22539;-85
2022/05/25 17:17:32;;;;;;;4.60;1.00;;;;;;;18.33;57.22;98947.99;105767;1279;22562;-82